sensor_id;sensor_type;location;lat;lon;timestamp;temperature;humidity
5429;DHT22;2737;52.386;9.980;2023-02-05T00:00:50;-0.40;99.90
5429;DHT22;2737;52.386;9.980;2023-02-05T00:03:17;-0.40;99.90
5429;DHT22;2737;52.386;9.980;2023-02-05T00:05:44;-0.40;99.90
5429;DHT22;2737;52.386;9.980;2023-02-05T00:08:11;-0.40;99.90
5429;DHT22;2737;52.386;9.980;2023-02-05T00:10:39;-0.50;99.90
5429;DHT22;2737;52.386;9.980;2023-02-05T00:13:06;-0.50;99.90
5429;DHT22;2737;52.386;9.980;2023-02-05T00:15:34;-0.50;99.90
5429;DHT22;2737;52.386;9.980;2023-02-05T00:18:02;-0.50;99.90
5429;DHT22;2737;52.386;9.980;2023-02-05T00:20:30;-0.60;99.90
5429;DHT22;2737;52.386;9.980;2023-02-05T00:22:57;-0.50;99.90
5429;DHT22;2737;52.386;9.980;2023-02-05T00:25:24;-0.50;99.90
5429;DHT22;2737;52.386;9.980;2023-02-05T00:27:52;-0.60;99.90
5429;DHT22;2737;52.386;9.980;2023-02-05T00:30:19;-0.60;99.90
5429;DHT22;2737;52.386;9.980;2023-02-05T00:32:46;-0.60;99.90
5429;DHT22;2737;52.386;9.980;2023-02-05T00:35:14;-0.60;99.90
5429;DHT22;2737;52.386;9.980;2023-02-05T00:37:41;-0.60;99.90
5429;DHT22;2737;52.386;9.980;2023-02-05T00:40:09;-0.60;99.90
5429;DHT22;2737;52.386;9.980;2023-02-05T00:42:36;-0.60;99.90
5429;DHT22;2737;52.386;9.980;2023-02-05T00:45:05;-0.60;99.90
5429;DHT22;2737;52.386;9.980;2023-02-05T00:47:32;-0.70;99.90
5429;DHT22;2737;52.386;9.980;2023-02-05T00:49:59;-0.70;99.90
5429;DHT22;2737;52.386;9.980;2023-02-05T00:52:26;-0.70;99.90
5429;DHT22;2737;52.386;9.980;2023-02-05T00:54:53;-0.70;99.90
5429;DHT22;2737;52.386;9.980;2023-02-05T00:57:21;-0.70;99.90
5429;DHT22;2737;52.386;9.980;2023-02-05T00:59:49;-0.70;99.90
5429;DHT22;2737;52.386;9.980;2023-02-05T01:02:19;-0.70;99.90
5429;DHT22;2737;52.386;9.980;2023-02-05T01:04:48;-0.70;99.90
5429;DHT22;2737;52.386;9.980;2023-02-05T01:07:16;-0.70;99.90
5429;DHT22;2737;52.386;9.980;2023-02-05T01:09:43;-0.70;99.90
5429;DHT22;2737;52.386;9.980;2023-02-05T01:12:10;-0.70;99.90
5429;DHT22;2737;52.386;9.980;2023-02-05T01:14:38;-0.70;99.90
5429;DHT22;2737;52.386;9.980;2023-02-05T01:17:06;-0.70;99.90
5429;DHT22;2737;52.386;9.980;2023-02-05T01:19:35;-0.70;99.90
5429;DHT22;2737;52.386;9.980;2023-02-05T01:22:03;-0.70;99.90
5429;DHT22;2737;52.386;9.980;2023-02-05T01:24:30;-0.70;99.90
5429;DHT22;2737;52.386;9.980;2023-02-05T01:26:57;-0.70;99.90
5429;DHT22;2737;52.386;9.980;2023-02-05T01:29:25;-0.70;99.90
5429;DHT22;2737;52.386;9.980;2023-02-05T01:31:52;-0.70;99.90
5429;DHT22;2737;52.386;9.980;2023-02-05T01:34:19;-0.70;99.90
5429;DHT22;2737;52.386;9.980;2023-02-05T01:36:48;-0.70;99.90
5429;DHT22;2737;52.386;9.980;2023-02-05T01:39:15;-0.70;99.90
5429;DHT22;2737;52.386;9.980;2023-02-05T01:41:42;-0.70;99.90
5429;DHT22;2737;52.386;9.980;2023-02-05T01:44:12;-0.70;99.90
5429;DHT22;2737;52.386;9.980;2023-02-05T01:46:40;-0.70;99.90
5429;DHT22;2737;52.386;9.980;2023-02-05T01:49:10;-0.70;99.90
5429;DHT22;2737;52.386;9.980;2023-02-05T01:51:38;-0.70;99.90
5429;DHT22;2737;52.386;9.980;2023-02-05T01:54:07;-0.70;99.90
5429;DHT22;2737;52.386;9.980;2023-02-05T01:56:36;-0.70;99.90
5429;DHT22;2737;52.386;9.980;2023-02-05T01:59:07;-0.70;99.90
5429;DHT22;2737;52.386;9.980;2023-02-05T02:01:36;-0.70;99.90
5429;DHT22;2737;52.386;9.980;2023-02-05T02:04:05;-0.70;99.90
5429;DHT22;2737;52.386;9.980;2023-02-05T02:06:34;-0.70;99.90
5429;DHT22;2737;52.386;9.980;2023-02-05T02:09:02;-0.70;99.90
5429;DHT22;2737;52.386;9.980;2023-02-05T02:11:34;-0.70;99.90
5429;DHT22;2737;52.386;9.980;2023-02-05T02:14:04;-0.70;99.90
5429;DHT22;2737;52.386;9.980;2023-02-05T02:16:33;-0.70;99.90
5429;DHT22;2737;52.386;9.980;2023-02-05T02:19:02;-0.80;99.90
5429;DHT22;2737;52.386;9.980;2023-02-05T02:24:48;-0.80;99.90
5429;DHT22;2737;52.386;9.980;2023-02-05T02:27:43;-0.80;99.90
5429;DHT22;2737;52.386;9.980;2023-02-05T02:30:19;-0.80;99.90
5429;DHT22;2737;52.386;9.980;2023-02-05T02:32:55;-0.80;99.90
5429;DHT22;2737;52.386;9.980;2023-02-05T02:35:28;-0.80;99.90
5429;DHT22;2737;52.386;9.980;2023-02-05T02:38:05;-0.80;99.90
5429;DHT22;2737;52.386;9.980;2023-02-05T02:40:37;-0.80;99.90
5429;DHT22;2737;52.386;9.980;2023-02-05T02:43:10;-0.80;99.90
5429;DHT22;2737;52.386;9.980;2023-02-05T02:45:44;-0.90;99.90
5429;DHT22;2737;52.386;9.980;2023-02-05T02:48:13;-0.90;99.90
5429;DHT22;2737;52.386;9.980;2023-02-05T02:50:43;-0.90;99.90
5429;DHT22;2737;52.386;9.980;2023-02-05T02:53:14;-0.90;99.90
5429;DHT22;2737;52.386;9.980;2023-02-05T02:55:43;-0.90;99.90
5429;DHT22;2737;52.386;9.980;2023-02-05T02:58:17;-0.90;99.90
5429;DHT22;2737;52.386;9.980;2023-02-05T03:00:46;-0.90;99.90
5429;DHT22;2737;52.386;9.980;2023-02-05T03:03:16;-0.90;99.90
5429;DHT22;2737;52.386;9.980;2023-02-05T03:05:45;-0.90;99.90
5429;DHT22;2737;52.386;9.980;2023-02-05T03:08:16;-0.90;99.90
5429;DHT22;2737;52.386;9.980;2023-02-05T03:10:47;-0.90;99.90
5429;DHT22;2737;52.386;9.980;2023-02-05T03:13:18;-0.80;99.90
5429;DHT22;2737;52.386;9.980;2023-02-05T03:15:45;-0.90;99.90
5429;DHT22;2737;52.386;9.980;2023-02-05T03:18:14;-0.90;99.90
5429;DHT22;2737;52.386;9.980;2023-02-05T03:20:46;-0.90;99.90
5429;DHT22;2737;52.386;9.980;2023-02-05T03:23:15;-0.90;99.90
5429;DHT22;2737;52.386;9.980;2023-02-05T03:25:42;-0.90;99.90
5429;DHT22;2737;52.386;9.980;2023-02-05T03:28:10;-0.90;99.90
5429;DHT22;2737;52.386;9.980;2023-02-05T03:30:46;-0.90;99.90
5429;DHT22;2737;52.386;9.980;2023-02-05T03:33:28;-0.80;99.90
5429;DHT22;2737;52.386;9.980;2023-02-05T03:36:03;-0.90;99.90
5429;DHT22;2737;52.386;9.980;2023-02-05T03:38:41;-0.90;99.90
5429;DHT22;2737;52.386;9.980;2023-02-05T03:41:18;-1.00;99.90
5429;DHT22;2737;52.386;9.980;2023-02-05T03:43:50;-1.00;99.90
5429;DHT22;2737;52.386;9.980;2023-02-05T03:46:30;-1.00;99.90
5429;DHT22;2737;52.386;9.980;2023-02-05T03:49:10;-1.00;99.90
5429;DHT22;2737;52.386;9.980;2023-02-05T03:51:43;-1.00;99.90
5429;DHT22;2737;52.386;9.980;2023-02-05T03:54:17;-1.00;99.90
5429;DHT22;2737;52.386;9.980;2023-02-05T03:56:53;-1.00;99.90
5429;DHT22;2737;52.386;9.980;2023-02-05T03:59:23;-1.00;99.90
5429;DHT22;2737;52.386;9.980;2023-02-05T04:01:53;-1.00;99.90
5429;DHT22;2737;52.386;9.980;2023-02-05T04:04:21;-0.90;99.90
5429;DHT22;2737;52.386;9.980;2023-02-05T04:06:51;-0.90;99.90
5429;DHT22;2737;52.386;9.980;2023-02-05T04:09:18;-0.90;99.90
5429;DHT22;2737;52.386;9.980;2023-02-05T04:11:46;-0.90;99.90
5429;DHT22;2737;52.386;9.980;2023-02-05T04:14:13;-0.90;99.90
5429;DHT22;2737;52.386;9.980;2023-02-05T04:16:40;-0.80;99.90
5429;DHT22;2737;52.386;9.980;2023-02-05T04:19:08;-0.80;99.90
5429;DHT22;2737;52.386;9.980;2023-02-05T04:21:35;-0.80;99.90
5429;DHT22;2737;52.386;9.980;2023-02-05T04:24:03;-0.80;99.90
5429;DHT22;2737;52.386;9.980;2023-02-05T04:26:30;-0.80;99.90
5429;DHT22;2737;52.386;9.980;2023-02-05T04:28:57;-0.80;99.90
5429;DHT22;2737;52.386;9.980;2023-02-05T04:31:24;-0.80;99.90
5429;DHT22;2737;52.386;9.980;2023-02-05T04:33:51;-0.80;99.90
5429;DHT22;2737;52.386;9.980;2023-02-05T04:36:19;-0.80;99.90
5429;DHT22;2737;52.386;9.980;2023-02-05T04:38:46;-0.70;99.90
5429;DHT22;2737;52.386;9.980;2023-02-05T04:41:13;-0.70;99.90
5429;DHT22;2737;52.386;9.980;2023-02-05T04:43:41;-0.70;99.90
5429;DHT22;2737;52.386;9.980;2023-02-05T04:46:09;-0.70;99.90
5429;DHT22;2737;52.386;9.980;2023-02-05T04:48:37;-0.70;99.90
5429;DHT22;2737;52.386;9.980;2023-02-05T04:51:05;-0.60;99.90
5429;DHT22;2737;52.386;9.980;2023-02-05T04:53:34;-0.60;99.90
5429;DHT22;2737;52.386;9.980;2023-02-05T04:56:06;-0.60;99.90
5429;DHT22;2737;52.386;9.980;2023-02-05T04:58:33;-0.50;99.90
5429;DHT22;2737;52.386;9.980;2023-02-05T05:01:00;-0.50;99.90
5429;DHT22;2737;52.386;9.980;2023-02-05T05:03:28;-0.50;99.90
5429;DHT22;2737;52.386;9.980;2023-02-05T05:05:55;-0.40;99.90
5429;DHT22;2737;52.386;9.980;2023-02-05T05:08:22;-0.50;99.90
5429;DHT22;2737;52.386;9.980;2023-02-05T05:10:50;-0.40;99.90
5429;DHT22;2737;52.386;9.980;2023-02-05T05:13:17;-0.40;99.90
5429;DHT22;2737;52.386;9.980;2023-02-05T05:15:44;-0.40;99.90
5429;DHT22;2737;52.386;9.980;2023-02-05T05:18:18;-0.40;99.90
5429;DHT22;2737;52.386;9.980;2023-02-05T05:20:45;-0.40;99.90
5429;DHT22;2737;52.386;9.980;2023-02-05T05:23:12;-0.30;99.90
5429;DHT22;2737;52.386;9.980;2023-02-05T05:25:40;-0.30;99.90
5429;DHT22;2737;52.386;9.980;2023-02-05T05:28:09;-0.30;99.90
5429;DHT22;2737;52.386;9.980;2023-02-05T05:30:37;-0.30;99.90
5429;DHT22;2737;52.386;9.980;2023-02-05T05:33:05;-0.30;99.90
5429;DHT22;2737;52.386;9.980;2023-02-05T05:35:32;-0.30;99.90
5429;DHT22;2737;52.386;9.980;2023-02-05T05:38:00;-0.30;99.90
5429;DHT22;2737;52.386;9.980;2023-02-05T05:40:27;-0.30;99.90
5429;DHT22;2737;52.386;9.980;2023-02-05T05:43:15;-0.30;99.90
5429;DHT22;2737;52.386;9.980;2023-02-05T05:46:00;-0.30;99.90
5429;DHT22;2737;52.386;9.980;2023-02-05T05:48:27;-0.20;99.90
5429;DHT22;2737;52.386;9.980;2023-02-05T05:50:54;-0.20;99.90
5429;DHT22;2737;52.386;9.980;2023-02-05T05:53:21;-0.30;99.90
5429;DHT22;2737;52.386;9.980;2023-02-05T05:55:48;-0.20;99.90
5429;DHT22;2737;52.386;9.980;2023-02-05T05:58:17;-0.20;99.90
5429;DHT22;2737;52.386;9.980;2023-02-05T06:00:44;-0.20;99.90
5429;DHT22;2737;52.386;9.980;2023-02-05T06:03:11;-0.20;99.90
5429;DHT22;2737;52.386;9.980;2023-02-05T06:05:38;-0.20;99.90
5429;DHT22;2737;52.386;9.980;2023-02-05T06:08:05;-0.20;99.90
5429;DHT22;2737;52.386;9.980;2023-02-05T06:10:33;-0.20;99.90
5429;DHT22;2737;52.386;9.980;2023-02-05T06:13:00;-0.20;99.90
5429;DHT22;2737;52.386;9.980;2023-02-05T06:15:29;-0.20;99.90
5429;DHT22;2737;52.386;9.980;2023-02-05T06:17:56;-0.20;99.90
5429;DHT22;2737;52.386;9.980;2023-02-05T06:20:23;-0.20;99.90
5429;DHT22;2737;52.386;9.980;2023-02-05T06:22:50;-0.20;99.90
5429;DHT22;2737;52.386;9.980;2023-02-05T06:25:18;-0.20;99.90
5429;DHT22;2737;52.386;9.980;2023-02-05T06:27:45;-0.20;99.90
5429;DHT22;2737;52.386;9.980;2023-02-05T06:30:12;-0.20;99.90
5429;DHT22;2737;52.386;9.980;2023-02-05T06:32:41;-0.20;99.90
5429;DHT22;2737;52.386;9.980;2023-02-05T06:35:08;-0.20;99.90
5429;DHT22;2737;52.386;9.980;2023-02-05T06:37:35;-0.20;99.90
5429;DHT22;2737;52.386;9.980;2023-02-05T06:40:02;-0.20;99.90
5429;DHT22;2737;52.386;9.980;2023-02-05T06:42:30;-0.10;99.90
5429;DHT22;2737;52.386;9.980;2023-02-05T06:44:57;-0.10;99.90
5429;DHT22;2737;52.386;9.980;2023-02-05T06:47:24;-0.10;99.90
5429;DHT22;2737;52.386;9.980;2023-02-05T06:49:52;-0.10;99.90
5429;DHT22;2737;52.386;9.980;2023-02-05T06:52:19;0.00;99.90
5429;DHT22;2737;52.386;9.980;2023-02-05T06:54:46;0.00;99.90
5429;DHT22;2737;52.386;9.980;2023-02-05T06:57:13;0.00;99.90
5429;DHT22;2737;52.386;9.980;2023-02-05T06:59:40;0.00;99.90
5429;DHT22;2737;52.386;9.980;2023-02-05T07:02:08;0.00;99.90
5429;DHT22;2737;52.386;9.980;2023-02-05T07:04:36;0.00;99.90
5429;DHT22;2737;52.386;9.980;2023-02-05T07:07:04;0.00;99.90
5429;DHT22;2737;52.386;9.980;2023-02-05T07:09:31;0.00;99.90
5429;DHT22;2737;52.386;9.980;2023-02-05T07:11:58;0.00;99.90
5429;DHT22;2737;52.386;9.980;2023-02-05T07:14:25;0.00;99.90
5429;DHT22;2737;52.386;9.980;2023-02-05T07:16:53;0.00;99.90
5429;DHT22;2737;52.386;9.980;2023-02-05T07:19:20;0.00;99.90
5429;DHT22;2737;52.386;9.980;2023-02-05T07:21:47;0.00;99.90
5429;DHT22;2737;52.386;9.980;2023-02-05T07:24:15;0.00;99.90
5429;DHT22;2737;52.386;9.980;2023-02-05T07:26:42;0.10;99.90
5429;DHT22;2737;52.386;9.980;2023-02-05T07:29:10;0.10;99.90
5429;DHT22;2737;52.386;9.980;2023-02-05T07:31:37;0.10;99.90
5429;DHT22;2737;52.386;9.980;2023-02-05T07:34:04;0.10;99.90
5429;DHT22;2737;52.386;9.980;2023-02-05T07:36:31;0.10;99.90
5429;DHT22;2737;52.386;9.980;2023-02-05T07:38:58;0.10;99.90
5429;DHT22;2737;52.386;9.980;2023-02-05T07:41:26;0.10;99.90
5429;DHT22;2737;52.386;9.980;2023-02-05T07:43:53;0.10;99.90
5429;DHT22;2737;52.386;9.980;2023-02-05T07:46:21;0.10;99.90
5429;DHT22;2737;52.386;9.980;2023-02-05T07:48:48;0.10;99.90
5429;DHT22;2737;52.386;9.980;2023-02-05T07:51:16;0.20;99.90
5429;DHT22;2737;52.386;9.980;2023-02-05T07:53:44;0.10;99.90
5429;DHT22;2737;52.386;9.980;2023-02-05T07:56:11;0.10;99.90
5429;DHT22;2737;52.386;9.980;2023-02-05T07:58:41;0.10;99.90
5429;DHT22;2737;52.386;9.980;2023-02-05T08:01:09;0.20;99.90
5429;DHT22;2737;52.386;9.980;2023-02-05T08:03:36;0.20;99.90
5429;DHT22;2737;52.386;9.980;2023-02-05T08:06:03;0.20;99.90
5429;DHT22;2737;52.386;9.980;2023-02-05T08:08:31;0.20;99.90
5429;DHT22;2737;52.386;9.980;2023-02-05T08:11:00;0.30;99.90
5429;DHT22;2737;52.386;9.980;2023-02-05T08:13:28;0.30;99.90
5429;DHT22;2737;52.386;9.980;2023-02-05T08:15:56;0.40;99.90
5429;DHT22;2737;52.386;9.980;2023-02-05T08:18:24;0.40;99.90
5429;DHT22;2737;52.386;9.980;2023-02-05T08:20:51;0.40;99.90
5429;DHT22;2737;52.386;9.980;2023-02-05T08:23:19;0.50;99.90
5429;DHT22;2737;52.386;9.980;2023-02-05T08:25:46;0.50;99.90
5429;DHT22;2737;52.386;9.980;2023-02-05T08:28:13;0.50;99.90
5429;DHT22;2737;52.386;9.980;2023-02-05T08:30:41;0.50;99.90
5429;DHT22;2737;52.386;9.980;2023-02-05T08:33:09;0.50;99.90
5429;DHT22;2737;52.386;9.980;2023-02-05T08:35:36;0.60;99.90
5429;DHT22;2737;52.386;9.980;2023-02-05T08:38:03;0.60;99.90
5429;DHT22;2737;52.386;9.980;2023-02-05T08:40:30;0.60;99.90
5429;DHT22;2737;52.386;9.980;2023-02-05T08:42:57;0.70;99.90
5429;DHT22;2737;52.386;9.980;2023-02-05T08:45:27;0.70;99.90
5429;DHT22;2737;52.386;9.980;2023-02-05T08:47:54;0.80;99.90
5429;DHT22;2737;52.386;9.980;2023-02-05T08:50:23;0.80;99.90
5429;DHT22;2737;52.386;9.980;2023-02-05T08:52:50;0.80;99.90
5429;DHT22;2737;52.386;9.980;2023-02-05T08:55:17;0.90;99.90
5429;DHT22;2737;52.386;9.980;2023-02-05T08:57:44;0.90;99.90
5429;DHT22;2737;52.386;9.980;2023-02-05T09:00:13;1.00;99.90
5429;DHT22;2737;52.386;9.980;2023-02-05T09:02:41;1.00;99.90
5429;DHT22;2737;52.386;9.980;2023-02-05T09:05:08;1.10;99.90
5429;DHT22;2737;52.386;9.980;2023-02-05T09:07:37;1.10;99.90
5429;DHT22;2737;52.386;9.980;2023-02-05T09:10:07;1.10;99.90
5429;DHT22;2737;52.386;9.980;2023-02-05T09:12:34;1.20;99.90
5429;DHT22;2737;52.386;9.980;2023-02-05T09:15:03;1.20;99.90
5429;DHT22;2737;52.386;9.980;2023-02-05T09:17:31;1.20;99.90
5429;DHT22;2737;52.386;9.980;2023-02-05T09:19:59;1.30;99.90
5429;DHT22;2737;52.386;9.980;2023-02-05T09:22:26;1.30;99.90
5429;DHT22;2737;52.386;9.980;2023-02-05T09:24:54;1.40;99.90
5429;DHT22;2737;52.386;9.980;2023-02-05T09:27:21;1.50;99.90
5429;DHT22;2737;52.386;9.980;2023-02-05T09:29:48;1.40;99.90
5429;DHT22;2737;52.386;9.980;2023-02-05T09:32:15;1.50;99.90
5429;DHT22;2737;52.386;9.980;2023-02-05T09:34:43;1.50;99.90
5429;DHT22;2737;52.386;9.980;2023-02-05T09:37:10;1.50;99.90
5429;DHT22;2737;52.386;9.980;2023-02-05T09:39:37;1.50;99.90
5429;DHT22;2737;52.386;9.980;2023-02-05T09:42:12;1.60;99.90
5429;DHT22;2737;52.386;9.980;2023-02-05T09:45:00;1.60;99.90
5429;DHT22;2737;52.386;9.980;2023-02-05T09:47:31;1.60;99.90
5429;DHT22;2737;52.386;9.980;2023-02-05T09:50:05;1.70;99.90
5429;DHT22;2737;52.386;9.980;2023-02-05T09:52:41;1.70;99.90
5429;DHT22;2737;52.386;9.980;2023-02-05T09:55:16;1.70;99.90
5429;DHT22;2737;52.386;9.980;2023-02-05T09:57:46;1.80;99.90
5429;DHT22;2737;52.386;9.980;2023-02-05T10:00:19;1.80;99.90
5429;DHT22;2737;52.386;9.980;2023-02-05T10:02:52;1.80;99.90
5429;DHT22;2737;52.386;9.980;2023-02-05T10:05:22;1.90;99.90
5429;DHT22;2737;52.386;9.980;2023-02-05T10:07:55;1.80;99.90
5429;DHT22;2737;52.386;9.980;2023-02-05T10:10:35;1.80;99.90
5429;DHT22;2737;52.386;9.980;2023-02-05T10:13:26;1.90;99.90
5429;DHT22;2737;52.386;9.980;2023-02-05T10:16:11;1.90;99.90
5429;DHT22;2737;52.386;9.980;2023-02-05T10:18:55;1.90;99.90
5429;DHT22;2737;52.386;9.980;2023-02-05T10:21:39;1.90;99.90
5429;DHT22;2737;52.386;9.980;2023-02-05T10:24:28;2.00;99.90
5429;DHT22;2737;52.386;9.980;2023-02-05T10:27:06;2.00;99.90
5429;DHT22;2737;52.386;9.980;2023-02-05T10:29:43;2.00;99.90
5429;DHT22;2737;52.386;9.980;2023-02-05T10:32:19;2.10;99.90
5429;DHT22;2737;52.386;9.980;2023-02-05T10:34:59;2.10;99.90
5429;DHT22;2737;52.386;9.980;2023-02-05T10:37:34;2.20;99.90
5429;DHT22;2737;52.386;9.980;2023-02-05T10:40:12;2.20;99.90
5429;DHT22;2737;52.386;9.980;2023-02-05T10:42:43;2.20;99.90
5429;DHT22;2737;52.386;9.980;2023-02-05T10:45:16;2.20;99.90
5429;DHT22;2737;52.386;9.980;2023-02-05T10:47:52;2.20;99.90
5429;DHT22;2737;52.386;9.980;2023-02-05T10:50:25;2.20;99.90
5429;DHT22;2737;52.386;9.980;2023-02-05T10:52:53;2.20;99.90
5429;DHT22;2737;52.386;9.980;2023-02-05T10:55:20;2.20;99.90
5429;DHT22;2737;52.386;9.980;2023-02-05T10:57:47;2.10;99.90
5429;DHT22;2737;52.386;9.980;2023-02-05T11:00:19;2.10;99.90
5429;DHT22;2737;52.386;9.980;2023-02-05T11:02:49;2.20;99.90
5429;DHT22;2737;52.386;9.980;2023-02-05T11:05:23;2.20;99.90
5429;DHT22;2737;52.386;9.980;2023-02-05T11:07:53;2.30;99.90
5429;DHT22;2737;52.386;9.980;2023-02-05T11:10:22;2.30;99.90
5429;DHT22;2737;52.386;9.980;2023-02-05T11:12:52;2.40;99.90
5429;DHT22;2737;52.386;9.980;2023-02-05T11:15:23;2.40;99.90
5429;DHT22;2737;52.386;9.980;2023-02-05T11:17:53;2.40;99.90
5429;DHT22;2737;52.386;9.980;2023-02-05T11:20:22;2.40;99.90
5429;DHT22;2737;52.386;9.980;2023-02-05T11:23:05;2.50;99.90
5429;DHT22;2737;52.386;9.980;2023-02-05T11:25:32;2.60;99.90
5429;DHT22;2737;52.386;9.980;2023-02-05T11:28:00;2.60;99.90
5429;DHT22;2737;52.386;9.980;2023-02-05T11:30:31;2.70;99.90
5429;DHT22;2737;52.386;9.980;2023-02-05T11:33:17;2.70;99.90
5429;DHT22;2737;52.386;9.980;2023-02-05T11:35:53;2.70;99.90
5429;DHT22;2737;52.386;9.980;2023-02-05T11:38:25;2.70;99.90
5429;DHT22;2737;52.386;9.980;2023-02-05T11:40:57;2.80;99.90
5429;DHT22;2737;52.386;9.980;2023-02-05T11:43:30;2.70;99.90
5429;DHT22;2737;52.386;9.980;2023-02-05T11:46:01;2.80;99.90
5429;DHT22;2737;52.386;9.980;2023-02-05T11:48:36;2.80;99.90
5429;DHT22;2737;52.386;9.980;2023-02-05T11:51:06;2.80;99.90
5429;DHT22;2737;52.386;9.980;2023-02-05T11:53:34;2.80;99.90
5429;DHT22;2737;52.386;9.980;2023-02-05T11:56:07;2.80;99.90
5429;DHT22;2737;52.386;9.980;2023-02-05T11:58:35;2.80;99.90
5429;DHT22;2737;52.386;9.980;2023-02-05T12:01:19;2.60;99.90
5429;DHT22;2737;52.386;9.980;2023-02-05T12:03:57;2.60;99.90
5429;DHT22;2737;52.386;9.980;2023-02-05T12:06:31;2.60;99.90
5429;DHT22;2737;52.386;9.980;2023-02-05T12:09:01;2.50;99.90
5429;DHT22;2737;52.386;9.980;2023-02-05T12:11:45;2.50;99.90
5429;DHT22;2737;52.386;9.980;2023-02-05T12:14:35;2.50;99.90
5429;DHT22;2737;52.386;9.980;2023-02-05T12:17:32;2.50;99.90
5429;DHT22;2737;52.386;9.980;2023-02-05T12:23:19;2.60;99.90
5429;DHT22;2737;52.386;9.980;2023-02-05T12:25:56;2.60;99.90
5429;DHT22;2737;52.386;9.980;2023-02-05T12:28:35;2.60;99.90
5429;DHT22;2737;52.386;9.980;2023-02-05T12:31:15;2.60;99.90
5429;DHT22;2737;52.386;9.980;2023-02-05T12:34:12;2.60;99.90
5429;DHT22;2737;52.386;9.980;2023-02-05T12:36:59;2.70;99.90
5429;DHT22;2737;52.386;9.980;2023-02-05T12:39:38;2.70;99.90
5429;DHT22;2737;52.386;9.980;2023-02-05T12:42:18;2.70;99.90
5429;DHT22;2737;52.386;9.980;2023-02-05T12:44:58;2.70;99.90
5429;DHT22;2737;52.386;9.980;2023-02-05T12:47:42;2.80;99.90
5429;DHT22;2737;52.386;9.980;2023-02-05T12:50:35;2.80;99.90
5429;DHT22;2737;52.386;9.980;2023-02-05T12:53:14;2.90;99.90
5429;DHT22;2737;52.386;9.980;2023-02-05T12:55:53;2.90;99.90
5429;DHT22;2737;52.386;9.980;2023-02-05T12:58:30;3.00;99.90
5429;DHT22;2737;52.386;9.980;2023-02-05T13:01:03;2.90;99.90
5429;DHT22;2737;52.386;9.980;2023-02-05T13:03:36;3.00;99.90
5429;DHT22;2737;52.386;9.980;2023-02-05T13:06:11;3.00;99.90
5429;DHT22;2737;52.386;9.980;2023-02-05T13:08:41;3.00;99.90
5429;DHT22;2737;52.386;9.980;2023-02-05T13:11:14;3.00;99.90
5429;DHT22;2737;52.386;9.980;2023-02-05T13:13:47;3.00;99.90
5429;DHT22;2737;52.386;9.980;2023-02-05T13:16:17;3.00;99.90
5429;DHT22;2737;52.386;9.980;2023-02-05T13:18:58;3.00;99.90
5429;DHT22;2737;52.386;9.980;2023-02-05T13:21:27;3.00;99.90
5429;DHT22;2737;52.386;9.980;2023-02-05T13:24:23;3.10;99.90
5429;DHT22;2737;52.386;9.980;2023-02-05T13:27:19;3.20;99.90
5429;DHT22;2737;52.386;9.980;2023-02-05T13:30:09;3.20;99.90
5429;DHT22;2737;52.386;9.980;2023-02-05T13:32:39;3.20;99.90
5429;DHT22;2737;52.386;9.980;2023-02-05T13:35:09;3.20;99.90
5429;DHT22;2737;52.386;9.980;2023-02-05T13:37:50;3.30;99.90
5429;DHT22;2737;52.386;9.980;2023-02-05T13:43:30;3.40;99.90
5429;DHT22;2737;52.386;9.980;2023-02-05T13:46:31;3.40;99.90
5429;DHT22;2737;52.386;9.980;2023-02-05T13:49:24;3.50;99.90
5429;DHT22;2737;52.386;9.980;2023-02-05T13:52:09;3.50;99.90
5429;DHT22;2737;52.386;9.980;2023-02-05T13:55:11;3.60;99.90
5429;DHT22;2737;52.386;9.980;2023-02-05T13:58:07;3.60;99.90
5429;DHT22;2737;52.386;9.980;2023-02-05T14:00:38;3.60;99.90
5429;DHT22;2737;52.386;9.980;2023-02-05T14:03:06;3.70;99.90
5429;DHT22;2737;52.386;9.980;2023-02-05T14:05:36;3.80;99.90
5429;DHT22;2737;52.386;9.980;2023-02-05T14:08:05;3.80;99.90
5429;DHT22;2737;52.386;9.980;2023-02-05T14:10:36;3.80;99.90
5429;DHT22;2737;52.386;9.980;2023-02-05T14:13:16;3.80;99.90
5429;DHT22;2737;52.386;9.980;2023-02-05T14:15:47;3.80;99.90
5429;DHT22;2737;52.386;9.980;2023-02-05T14:24:45;3.80;99.90
5429;DHT22;2737;52.386;9.980;2023-02-05T14:27:50;3.90;99.90
5429;DHT22;2737;52.386;9.980;2023-02-05T14:30:35;3.60;99.90
5429;DHT22;2737;52.386;9.980;2023-02-05T14:35:47;3.50;99.90
5429;DHT22;2737;52.386;9.980;2023-02-05T14:38:20;3.50;99.90
5429;DHT22;2737;52.386;9.980;2023-02-05T14:41:00;3.70;99.90
5429;DHT22;2737;52.386;9.980;2023-02-05T14:43:32;3.60;99.90
5429;DHT22;2737;52.386;9.980;2023-02-05T14:46:04;3.60;99.90
5429;DHT22;2737;52.386;9.980;2023-02-05T14:48:35;3.60;99.90
5429;DHT22;2737;52.386;9.980;2023-02-05T14:51:06;3.60;99.90
5429;DHT22;2737;52.386;9.980;2023-02-05T14:53:35;3.60;99.90
5429;DHT22;2737;52.386;9.980;2023-02-05T14:56:04;3.60;99.90
5429;DHT22;2737;52.386;9.980;2023-02-05T14:58:35;3.60;99.90
5429;DHT22;2737;52.386;9.980;2023-02-05T15:04:38;3.50;99.90
5429;DHT22;2737;52.386;9.980;2023-02-05T15:07:11;3.40;99.90
5429;DHT22;2737;52.386;9.980;2023-02-05T15:09:41;3.40;99.90
5429;DHT22;2737;52.386;9.980;2023-02-05T15:12:30;3.40;99.90
5429;DHT22;2737;52.386;9.980;2023-02-05T15:15:22;3.40;99.90
5429;DHT22;2737;52.386;9.980;2023-02-05T15:17:52;3.30;99.90
5429;DHT22;2737;52.386;9.980;2023-02-05T15:20:24;3.20;99.90
5429;DHT22;2737;52.386;9.980;2023-02-05T15:22:55;3.20;99.90
5429;DHT22;2737;52.386;9.980;2023-02-05T15:25:41;3.20;99.90
5429;DHT22;2737;52.386;9.980;2023-02-05T15:28:19;3.20;99.90
5429;DHT22;2737;52.386;9.980;2023-02-05T15:30:55;3.20;99.90
5429;DHT22;2737;52.386;9.980;2023-02-05T15:33:37;3.20;99.90
5429;DHT22;2737;52.386;9.980;2023-02-05T15:36:12;3.20;99.90
5429;DHT22;2737;52.386;9.980;2023-02-05T15:38:48;3.20;99.90
5429;DHT22;2737;52.386;9.980;2023-02-05T15:41:19;3.20;99.90
5429;DHT22;2737;52.386;9.980;2023-02-05T15:43:58;3.20;99.90
5429;DHT22;2737;52.386;9.980;2023-02-05T15:46:28;3.10;99.90
5429;DHT22;2737;52.386;9.980;2023-02-05T15:48:57;3.00;99.90
5429;DHT22;2737;52.386;9.980;2023-02-05T15:51:29;3.00;99.90
5429;DHT22;2737;52.386;9.980;2023-02-05T15:54:00;3.00;99.90
5429;DHT22;2737;52.386;9.980;2023-02-05T15:56:29;2.90;99.90
5429;DHT22;2737;52.386;9.980;2023-02-05T15:59:03;2.80;99.90
5429;DHT22;2737;52.386;9.980;2023-02-05T16:01:34;2.70;99.90
5429;DHT22;2737;52.386;9.980;2023-02-05T16:04:01;2.50;99.90
5429;DHT22;2737;52.386;9.980;2023-02-05T16:06:41;2.40;99.90
5429;DHT22;2737;52.386;9.980;2023-02-05T16:09:14;2.30;99.90
5429;DHT22;2737;52.386;9.980;2023-02-05T16:11:42;2.20;99.90
5429;DHT22;2737;52.386;9.980;2023-02-05T16:14:12;2.20;99.90
5429;DHT22;2737;52.386;9.980;2023-02-05T16:16:45;2.00;99.90
5429;DHT22;2737;52.386;9.980;2023-02-05T16:19:18;2.00;99.90
5429;DHT22;2737;52.386;9.980;2023-02-05T16:21:51;2.00;99.90
5429;DHT22;2737;52.386;9.980;2023-02-05T16:24:27;1.90;99.90
5429;DHT22;2737;52.386;9.980;2023-02-05T16:26:59;1.90;99.90
5429;DHT22;2737;52.386;9.980;2023-02-05T16:29:31;2.00;99.90
5429;DHT22;2737;52.386;9.980;2023-02-05T16:32:03;2.00;99.90
5429;DHT22;2737;52.386;9.980;2023-02-05T16:34:32;2.10;99.90
5429;DHT22;2737;52.386;9.980;2023-02-05T16:37:03;2.00;99.90
5429;DHT22;2737;52.386;9.980;2023-02-05T16:39:37;2.10;99.90
5429;DHT22;2737;52.386;9.980;2023-02-05T16:42:07;2.10;99.90
5429;DHT22;2737;52.386;9.980;2023-02-05T16:44:36;2.20;99.90
5429;DHT22;2737;52.386;9.980;2023-02-05T16:47:14;2.20;99.90
5429;DHT22;2737;52.386;9.980;2023-02-05T16:49:42;2.20;99.90
5429;DHT22;2737;52.386;9.980;2023-02-05T16:52:27;2.20;99.90
5429;DHT22;2737;52.386;9.980;2023-02-05T16:54:55;2.20;99.90
5429;DHT22;2737;52.386;9.980;2023-02-05T16:57:27;2.20;99.90
5429;DHT22;2737;52.386;9.980;2023-02-05T16:59:58;2.20;99.90
5429;DHT22;2737;52.386;9.980;2023-02-05T17:02:35;2.20;99.90